sensor_id;sensor_type;location;lat;lon;timestamp;P1;durP1;ratioP1;P2;durP2;ratioP2
41077;SDS011;26823;42.662;23.352;2024-03-07T00:00:09;29.63;;;20.75;;
41077;SDS011;26823;42.662;23.352;2024-03-07T00:02:44;26.20;;;19.38;;
41077;SDS011;26823;42.662;23.352;2024-03-07T00:05:11;29.30;;;20.85;;
41077;SDS011;26823;42.662;23.352;2024-03-07T00:07:38;27.27;;;20.08;;
41077;SDS011;26823;42.662;23.352;2024-03-07T00:10:04;25.63;;;18.85;;
41077;SDS011;26823;42.662;23.352;2024-03-07T00:12:33;28.10;;;19.52;;
41077;SDS011;26823;42.662;23.352;2024-03-07T00:15:06;27.63;;;18.98;;
41077;SDS011;26823;42.662;23.352;2024-03-07T00:17:32;24.88;;;18.45;;
41077;SDS011;26823;42.662;23.352;2024-03-07T00:19:58;23.80;;;17.60;;
41077;SDS011;26823;42.662;23.352;2024-03-07T00:22:23;24.45;;;17.80;;
41077;SDS011;26823;42.662;23.352;2024-03-07T00:24:52;24.08;;;16.63;;
41077;SDS011;26823;42.662;23.352;2024-03-07T00:27:20;23.70;;;17.95;;
41077;SDS011;26823;42.662;23.352;2024-03-07T00:29:49;25.33;;;17.25;;
41077;SDS011;26823;42.662;23.352;2024-03-07T00:32:21;23.05;;;17.58;;
41077;SDS011;26823;42.662;23.352;2024-03-07T00:34:47;24.73;;;17.10;;
41077;SDS011;26823;42.662;23.352;2024-03-07T00:37:14;22.73;;;16.80;;
41077;SDS011;26823;42.662;23.352;2024-03-07T00:39:40;24.27;;;17.33;;
41077;SDS011;26823;42.662;23.352;2024-03-07T00:42:05;25.48;;;17.55;;
41077;SDS011;26823;42.662;23.352;2024-03-07T00:44:31;24.00;;;16.45;;
41077;SDS011;26823;42.662;23.352;2024-03-07T00:46:56;24.42;;;17.80;;
41077;SDS011;26823;42.662;23.352;2024-03-07T00:49:22;24.75;;;17.38;;
41077;SDS011;26823;42.662;23.352;2024-03-07T00:51:48;26.25;;;16.67;;
41077;SDS011;26823;42.662;23.352;2024-03-07T00:54:14;23.80;;;16.42;;
41077;SDS011;26823;42.662;23.352;2024-03-07T00:56:40;22.20;;;16.45;;
41077;SDS011;26823;42.662;23.352;2024-03-07T00:59:05;25.98;;;17.75;;
41077;SDS011;26823;42.662;23.352;2024-03-07T01:01:31;20.42;;;15.45;;
41077;SDS011;26823;42.662;23.352;2024-03-07T01:03:59;27.13;;;17.25;;
41077;SDS011;26823;42.662;23.352;2024-03-07T01:06:25;19.27;;;16.00;;
41077;SDS011;26823;42.662;23.352;2024-03-07T01:08:50;25.83;;;16.85;;
41077;SDS011;26823;42.662;23.352;2024-03-07T01:11:17;23.25;;;16.73;;
41077;SDS011;26823;42.662;23.352;2024-03-07T01:13:42;22.55;;;16.60;;
41077;SDS011;26823;42.662;23.352;2024-03-07T01:16:08;24.50;;;17.00;;
41077;SDS011;26823;42.662;23.352;2024-03-07T01:18:34;26.20;;;16.33;;
41077;SDS011;26823;42.662;23.352;2024-03-07T01:21:00;24.90;;;16.95;;
41077;SDS011;26823;42.662;23.352;2024-03-07T01:23:26;22.88;;;16.63;;
41077;SDS011;26823;42.662;23.352;2024-03-07T01:25:54;22.92;;;17.05;;
41077;SDS011;26823;42.662;23.352;2024-03-07T01:28:21;26.23;;;17.17;;
41077;SDS011;26823;42.662;23.352;2024-03-07T01:30:47;23.90;;;16.33;;
41077;SDS011;26823;42.662;23.352;2024-03-07T01:33:14;24.70;;;17.23;;
41077;SDS011;26823;42.662;23.352;2024-03-07T01:35:39;23.30;;;16.77;;
41077;SDS011;26823;42.662;23.352;2024-03-07T01:38:04;26.63;;;18.23;;
41077;SDS011;26823;42.662;23.352;2024-03-07T01:40:30;24.88;;;17.00;;
41077;SDS011;26823;42.662;23.352;2024-03-07T01:42:55;23.52;;;16.45;;
41077;SDS011;26823;42.662;23.352;2024-03-07T01:45:21;23.17;;;15.68;;
41077;SDS011;26823;42.662;23.352;2024-03-07T01:47:47;21.95;;;15.95;;
41077;SDS011;26823;42.662;23.352;2024-03-07T01:50:12;22.95;;;16.27;;
41077;SDS011;26823;42.662;23.352;2024-03-07T01:52:39;22.30;;;14.85;;
41077;SDS011;26823;42.662;23.352;2024-03-07T01:55:06;22.58;;;15.07;;
41077;SDS011;26823;42.662;23.352;2024-03-07T01:57:32;22.90;;;15.38;;
41077;SDS011;26823;42.662;23.352;2024-03-07T01:59:58;21.20;;;15.68;;
41077;SDS011;26823;42.662;23.352;2024-03-07T02:02:29;22.33;;;14.93;;
41077;SDS011;26823;42.662;23.352;2024-03-07T02:04:54;19.70;;;14.73;;
41077;SDS011;26823;42.662;23.352;2024-03-07T02:07:20;19.75;;;14.57;;
41077;SDS011;26823;42.662;23.352;2024-03-07T02:09:58;21.50;;;14.93;;
41077;SDS011;26823;42.662;23.352;2024-03-07T02:12:30;20.17;;;14.95;;
41077;SDS011;26823;42.662;23.352;2024-03-07T02:14:58;17.85;;;12.80;;
41077;SDS011;26823;42.662;23.352;2024-03-07T02:17:24;19.08;;;11.52;;
41077;SDS011;26823;42.662;23.352;2024-03-07T02:19:50;12.73;;;8.82;;
41077;SDS011;26823;42.662;23.352;2024-03-07T02:22:16;9.38;;;6.28;;
41077;SDS011;26823;42.662;23.352;2024-03-07T02:24:42;10.80;;;4.85;;
41077;SDS011;26823;42.662;23.352;2024-03-07T02:27:07;4.68;;;3.20;;
41077;SDS011;26823;42.662;23.352;2024-03-07T02:29:34;5.10;;;2.75;;
41077;SDS011;26823;42.662;23.352;2024-03-07T02:32:01;2.83;;;2.47;;
41077;SDS011;26823;42.662;23.352;2024-03-07T02:34:27;1.92;;;1.83;;
41077;SDS011;26823;42.662;23.352;2024-03-07T02:36:52;2.08;;;1.70;;
41077;SDS011;26823;42.662;23.352;2024-03-07T02:39:17;1.75;;;1.60;;
41077;SDS011;26823;42.662;23.352;2024-03-07T02:41:43;1.55;;;1.40;;
41077;SDS011;26823;42.662;23.352;2024-03-07T02:44:08;1.67;;;1.58;;
41077;SDS011;26823;42.662;23.352;2024-03-07T02:46:34;2.03;;;1.80;;
41077;SDS011;26823;42.662;23.352;2024-03-07T02:48:59;1.33;;;1.23;;
41077;SDS011;26823;42.662;23.352;2024-03-07T02:51:25;2.08;;;1.60;;
41077;SDS011;26823;42.662;23.352;2024-03-07T02:53:50;1.73;;;1.63;;
41077;SDS011;26823;42.662;23.352;2024-03-07T02:56:16;1.48;;;1.38;;
41077;SDS011;26823;42.662;23.352;2024-03-07T02:58:41;1.63;;;1.52;;
41077;SDS011;26823;42.662;23.352;2024-03-07T03:01:27;2.35;;;1.83;;
41077;SDS011;26823;42.662;23.352;2024-03-07T03:03:53;2.30;;;1.90;;
41077;SDS011;26823;42.662;23.352;2024-03-07T03:06:18;2.22;;;1.52;;
41077;SDS011;26823;42.662;23.352;2024-03-07T03:08:47;1.75;;;1.63;;
41077;SDS011;26823;42.662;23.352;2024-03-07T03:11:12;3.35;;;1.70;;
41077;SDS011;26823;42.662;23.352;2024-03-07T03:13:41;3.33;;;1.45;;
41077;SDS011;26823;42.662;23.352;2024-03-07T03:16:07;1.88;;;1.60;;
41077;SDS011;26823;42.662;23.352;2024-03-07T03:18:33;2.00;;;1.77;;
41077;SDS011;26823;42.662;23.352;2024-03-07T03:21:02;2.55;;;1.60;;
41077;SDS011;26823;42.662;23.352;2024-03-07T03:23:28;2.40;;;1.40;;
41077;SDS011;26823;42.662;23.352;2024-03-07T03:25:54;1.58;;;1.30;;
41077;SDS011;26823;42.662;23.352;2024-03-07T03:28:20;1.30;;;1.20;;
41077;SDS011;26823;42.662;23.352;2024-03-07T03:30:46;1.83;;;1.52;;
41077;SDS011;26823;42.662;23.352;2024-03-07T03:33:12;1.67;;;1.50;;
41077;SDS011;26823;42.662;23.352;2024-03-07T03:35:38;1.98;;;1.50;;
41077;SDS011;26823;42.662;23.352;2024-03-07T03:38:04;1.63;;;1.23;;
41077;SDS011;26823;42.662;23.352;2024-03-07T03:40:29;2.03;;;1.33;;
41077;SDS011;26823;42.662;23.352;2024-03-07T03:42:55;2.65;;;1.30;;
41077;SDS011;26823;42.662;23.352;2024-03-07T03:45:20;2.28;;;1.45;;
41077;SDS011;26823;42.662;23.352;2024-03-07T03:47:46;5.55;;;1.50;;
41077;SDS011;26823;42.662;23.352;2024-03-07T03:50:13;1.58;;;1.45;;
41077;SDS011;26823;42.662;23.352;2024-03-07T03:52:39;1.65;;;1.30;;
41077;SDS011;26823;42.662;23.352;2024-03-07T03:55:08;1.50;;;1.40;;
41077;SDS011;26823;42.662;23.352;2024-03-07T03:57:35;1.80;;;1.30;;
41077;SDS011;26823;42.662;23.352;2024-03-07T04:00:01;2.28;;;1.15;;
41077;SDS011;26823;42.662;23.352;2024-03-07T04:02:35;2.63;;;0.85;;
41077;SDS011;26823;42.662;23.352;2024-03-07T04:05:02;2.03;;;1.08;;
41077;SDS011;26823;42.662;23.352;2024-03-07T04:07:29;0.77;;;0.70;;
41077;SDS011;26823;42.662;23.352;2024-03-07T04:09:56;0.85;;;0.85;;
41077;SDS011;26823;42.662;23.352;2024-03-07T04:12:23;0.82;;;0.82;;
41077;SDS011;26823;42.662;23.352;2024-03-07T04:14:48;0.60;;;0.60;;
41077;SDS011;26823;42.662;23.352;2024-03-07T04:17:14;2.95;;;1.38;;
41077;SDS011;26823;42.662;23.352;2024-03-07T04:19:39;0.80;;;0.80;;
41077;SDS011;26823;42.662;23.352;2024-03-07T04:22:06;1.40;;;0.90;;
41077;SDS011;26823;42.662;23.352;2024-03-07T04:24:33;0.95;;;0.90;;
41077;SDS011;26823;42.662;23.352;2024-03-07T04:26:59;0.68;;;0.68;;
41077;SDS011;26823;42.662;23.352;2024-03-07T04:29:26;0.75;;;0.75;;
41077;SDS011;26823;42.662;23.352;2024-03-07T04:31:51;0.88;;;0.70;;
41077;SDS011;26823;42.662;23.352;2024-03-07T04:34:17;0.60;;;0.60;;
41077;SDS011;26823;42.662;23.352;2024-03-07T04:36:42;1.30;;;0.80;;
41077;SDS011;26823;42.662;23.352;2024-03-07T04:39:08;0.70;;;0.70;;
41077;SDS011;26823;42.662;23.352;2024-03-07T04:41:44;0.85;;;0.85;;
41077;SDS011;26823;42.662;23.352;2024-03-07T04:44:10;1.10;;;1.00;;
41077;SDS011;26823;42.662;23.352;2024-03-07T04:46:35;2.08;;;0.85;;
41077;SDS011;26823;42.662;23.352;2024-03-07T04:49:01;1.20;;;1.10;;
41077;SDS011;26823;42.662;23.352;2024-03-07T04:51:26;1.13;;;1.10;;
41077;SDS011;26823;42.662;23.352;2024-03-07T04:53:51;1.27;;;1.17;;
41077;SDS011;26823;42.662;23.352;2024-03-07T04:56:17;1.23;;;1.10;;
41077;SDS011;26823;42.662;23.352;2024-03-07T04:58:42;2.78;;;1.30;;
41077;SDS011;26823;42.662;23.352;2024-03-07T05:01:08;1.58;;;1.48;;
41077;SDS011;26823;42.662;23.352;2024-03-07T05:03:33;1.92;;;1.58;;
41077;SDS011;26823;42.662;23.352;2024-03-07T05:05:58;2.00;;;1.50;;
41077;SDS011;26823;42.662;23.352;2024-03-07T05:08:25;2.22;;;1.42;;
41077;SDS011;26823;42.662;23.352;2024-03-07T05:10:51;2.10;;;1.73;;
41077;SDS011;26823;42.662;23.352;2024-03-07T05:13:17;1.73;;;1.55;;
41077;SDS011;26823;42.662;23.352;2024-03-07T05:15:42;3.38;;;2.45;;
41077;SDS011;26823;42.662;23.352;2024-03-07T05:18:08;6.07;;;2.20;;
41077;SDS011;26823;42.662;23.352;2024-03-07T05:20:33;3.60;;;2.40;;
41077;SDS011;26823;42.662;23.352;2024-03-07T05:22:59;4.38;;;2.50;;
41077;SDS011;26823;42.662;23.352;2024-03-07T05:25:24;3.40;;;2.75;;
41077;SDS011;26823;42.662;23.352;2024-03-07T05:27:56;3.15;;;2.80;;
41077;SDS011;26823;42.662;23.352;2024-03-07T05:30:21;6.32;;;2.88;;
41077;SDS011;26823;42.662;23.352;2024-03-07T05:32:48;2.97;;;2.65;;
41077;SDS011;26823;42.662;23.352;2024-03-07T05:35:14;3.28;;;2.50;;
41077;SDS011;26823;42.662;23.352;2024-03-07T05:37:40;2.53;;;2.33;;
41077;SDS011;26823;42.662;23.352;2024-03-07T05:40:12;3.38;;;2.03;;
41077;SDS011;26823;42.662;23.352;2024-03-07T05:42:38;6.22;;;2.53;;
41077;SDS011;26823;42.662;23.352;2024-03-07T05:45:03;2.80;;;2.50;;
41077;SDS011;26823;42.662;23.352;2024-03-07T05:47:32;3.97;;;2.47;;
41077;SDS011;26823;42.662;23.352;2024-03-07T05:49:58;3.00;;;2.35;;
41077;SDS011;26823;42.662;23.352;2024-03-07T05:52:24;3.05;;;2.72;;
41077;SDS011;26823;42.662;23.352;2024-03-07T05:54:49;2.45;;;2.20;;
41077;SDS011;26823;42.662;23.352;2024-03-07T05:57:15;4.97;;;3.22;;
41077;SDS011;26823;42.662;23.352;2024-03-07T05:59:40;3.30;;;2.47;;
41077;SDS011;26823;42.662;23.352;2024-03-07T06:02:06;7.28;;;4.70;;
41077;SDS011;26823;42.662;23.352;2024-03-07T06:04:31;3.30;;;2.88;;
41077;SDS011;26823;42.662;23.352;2024-03-07T06:07:04;3.00;;;2.45;;
41077;SDS011;26823;42.662;23.352;2024-03-07T06:09:36;2.65;;;2.45;;
41077;SDS011;26823;42.662;23.352;2024-03-07T06:12:05;2.60;;;2.38;;
41077;SDS011;26823;42.662;23.352;2024-03-07T06:14:35;3.28;;;2.67;;
41077;SDS011;26823;42.662;23.352;2024-03-07T06:17:00;5.93;;;3.08;;
41077;SDS011;26823;42.662;23.352;2024-03-07T06:19:26;3.70;;;3.22;;
41077;SDS011;26823;42.662;23.352;2024-03-07T06:22:00;3.92;;;3.47;;
41077;SDS011;26823;42.662;23.352;2024-03-07T06:24:27;4.45;;;3.83;;
41077;SDS011;26823;42.662;23.352;2024-03-07T06:26:58;5.05;;;3.60;;
41077;SDS011;26823;42.662;23.352;2024-03-07T06:29:28;4.82;;;3.60;;
41077;SDS011;26823;42.662;23.352;2024-03-07T06:31:54;3.72;;;3.00;;
41077;SDS011;26823;42.662;23.352;2024-03-07T06:34:22;4.00;;;3.22;;
41077;SDS011;26823;42.662;23.352;2024-03-07T06:36:50;3.97;;;3.35;;
41077;SDS011;26823;42.662;23.352;2024-03-07T06:39:16;4.63;;;4.03;;
41077;SDS011;26823;42.662;23.352;2024-03-07T06:41:58;4.95;;;4.05;;
41077;SDS011;26823;42.662;23.352;2024-03-07T06:44:23;5.20;;;4.13;;
41077;SDS011;26823;42.662;23.352;2024-03-07T06:46:49;7.57;;;5.13;;
41077;SDS011;26823;42.662;23.352;2024-03-07T06:49:15;7.10;;;4.75;;
41077;SDS011;26823;42.662;23.352;2024-03-07T06:51:40;6.25;;;4.90;;
41077;SDS011;26823;42.662;23.352;2024-03-07T06:54:06;7.40;;;4.95;;
41077;SDS011;26823;42.662;23.352;2024-03-07T06:56:31;8.45;;;4.45;;
41077;SDS011;26823;42.662;23.352;2024-03-07T06:58:56;9.93;;;5.18;;
41077;SDS011;26823;42.662;23.352;2024-03-07T07:01:23;5.20;;;4.22;;
41077;SDS011;26823;42.662;23.352;2024-03-07T07:03:51;7.55;;;4.90;;
41077;SDS011;26823;42.662;23.352;2024-03-07T07:06:16;4.55;;;4.10;;
41077;SDS011;26823;42.662;23.352;2024-03-07T07:08:42;5.80;;;4.32;;
41077;SDS011;26823;42.662;23.352;2024-03-07T07:11:09;7.78;;;4.28;;
41077;SDS011;26823;42.662;23.352;2024-03-07T07:13:36;5.05;;;4.30;;
41077;SDS011;26823;42.662;23.352;2024-03-07T07:16:01;4.65;;;4.22;;
41077;SDS011;26823;42.662;23.352;2024-03-07T07:18:27;3.80;;;3.40;;
41077;SDS011;26823;42.662;23.352;2024-03-07T07:20:55;4.30;;;3.10;;
41077;SDS011;26823;42.662;23.352;2024-03-07T07:23:23;3.97;;;3.38;;
41077;SDS011;26823;42.662;23.352;2024-03-07T07:25:48;2.95;;;2.55;;
41077;SDS011;26823;42.662;23.352;2024-03-07T07:28:17;4.57;;;3.50;;
41077;SDS011;26823;42.662;23.352;2024-03-07T07:30:42;4.25;;;2.75;;
41077;SDS011;26823;42.662;23.352;2024-03-07T07:33:08;2.80;;;2.30;;
41077;SDS011;26823;42.662;23.352;2024-03-07T07:35:33;3.28;;;2.95;;
41077;SDS011;26823;42.662;23.352;2024-03-07T07:37:59;3.13;;;2.72;;
41077;SDS011;26823;42.662;23.352;2024-03-07T07:40:25;4.75;;;3.35;;
41077;SDS011;26823;42.662;23.352;2024-03-07T07:42:53;4.50;;;3.70;;
41077;SDS011;26823;42.662;23.352;2024-03-07T07:45:19;4.10;;;3.60;;
41077;SDS011;26823;42.662;23.352;2024-03-07T07:47:49;5.63;;;3.63;;
41077;SDS011;26823;42.662;23.352;2024-03-07T07:50:17;4.63;;;3.63;;
41077;SDS011;26823;42.662;23.352;2024-03-07T07:52:44;4.95;;;3.90;;
41077;SDS011;26823;42.662;23.352;2024-03-07T07:55:32;7.00;;;3.60;;
41077;SDS011;26823;42.662;23.352;2024-03-07T07:58:01;5.40;;;3.85;;
41077;SDS011;26823;42.662;23.352;2024-03-07T08:00:29;7.35;;;3.50;;
41077;SDS011;26823;42.662;23.352;2024-03-07T08:02:56;5.03;;;3.00;;
41077;SDS011;26823;42.662;23.352;2024-03-07T08:05:23;5.07;;;3.45;;
41077;SDS011;26823;42.662;23.352;2024-03-07T08:07:52;3.72;;;2.95;;
41077;SDS011;26823;42.662;23.352;2024-03-07T08:10:19;6.35;;;2.97;;
41077;SDS011;26823;42.662;23.352;2024-03-07T08:12:46;4.20;;;3.08;;
41077;SDS011;26823;42.662;23.352;2024-03-07T08:15:12;6.90;;;2.40;;
41077;SDS011;26823;42.662;23.352;2024-03-07T08:17:42;4.40;;;2.80;;
41077;SDS011;26823;42.662;23.352;2024-03-07T08:20:10;3.85;;;3.25;;
41077;SDS011;26823;42.662;23.352;2024-03-07T08:22:37;3.85;;;2.90;;
41077;SDS011;26823;42.662;23.352;2024-03-07T08:25:07;3.90;;;3.05;;
41077;SDS011;26823;42.662;23.352;2024-03-07T08:27:37;2.80;;;2.50;;
41077;SDS011;26823;42.662;23.352;2024-03-07T08:30:04;3.67;;;3.03;;
41077;SDS011;26823;42.662;23.352;2024-03-07T08:32:32;10.15;;;7.28;;
41077;SDS011;26823;42.662;23.352;2024-03-07T08:35:01;4.50;;;3.20;;
41077;SDS011;26823;42.662;23.352;2024-03-07T08:37:31;5.70;;;3.05;;
41077;SDS011;26823;42.662;23.352;2024-03-07T08:39:59;3.03;;;2.67;;
41077;SDS011;26823;42.662;23.352;2024-03-07T08:42:29;4.68;;;3.22;;
41077;SDS011;26823;42.662;23.352;2024-03-07T08:44:59;4.50;;;2.67;;
41077;SDS011;26823;42.662;23.352;2024-03-07T08:47:27;4.63;;;2.60;;
41077;SDS011;26823;42.662;23.352;2024-03-07T08:49:53;5.50;;;3.30;;
41077;SDS011;26823;42.662;23.352;2024-03-07T08:52:19;5.70;;;3.42;;
41077;SDS011;26823;42.662;23.352;2024-03-07T08:54:45;6.18;;;4.03;;
41077;SDS011;26823;42.662;23.352;2024-03-07T08:57:10;4.38;;;2.95;;
41077;SDS011;26823;42.662;23.352;2024-03-07T08:59:36;4.22;;;3.08;;
41077;SDS011;26823;42.662;23.352;2024-03-07T09:02:01;4.68;;;2.47;;
41077;SDS011;26823;42.662;23.352;2024-03-07T09:04:27;3.67;;;2.50;;
41077;SDS011;26823;42.662;23.352;2024-03-07T09:06:54;3.53;;;2.92;;
41077;SDS011;26823;42.662;23.352;2024-03-07T09:09:20;4.60;;;3.40;;
41077;SDS011;26823;42.662;23.352;2024-03-07T09:11:45;7.15;;;4.18;;
41077;SDS011;26823;42.662;23.352;2024-03-07T09:14:11;6.30;;;5.13;;
41077;SDS011;26823;42.662;23.352;2024-03-07T09:16:37;5.88;;;4.22;;
41077;SDS011;26823;42.662;23.352;2024-03-07T09:19:03;3.47;;;3.17;;
41077;SDS011;26823;42.662;23.352;2024-03-07T09:21:28;3.45;;;2.92;;
41077;SDS011;26823;42.662;23.352;2024-03-07T09:23:56;4.15;;;2.63;;
41077;SDS011;26823;42.662;23.352;2024-03-07T09:26:21;4.20;;;2.60;;
41077;SDS011;26823;42.662;23.352;2024-03-07T09:28:47;3.63;;;3.10;;
41077;SDS011;26823;42.662;23.352;2024-03-07T09:31:16;4.18;;;2.92;;
41077;SDS011;26823;42.662;23.352;2024-03-07T09:33:41;5.90;;;3.85;;
41077;SDS011;26823;42.662;23.352;2024-03-07T09:36:06;5.15;;;3.15;;
41077;SDS011;26823;42.662;23.352;2024-03-07T09:38:33;7.00;;;3.00;;
41077;SDS011;26823;42.662;23.352;2024-03-07T09:40:59;8.00;;;4.28;;
41077;SDS011;26823;42.662;23.352;2024-03-07T09:43:25;5.53;;;3.15;;
41077;SDS011;26823;42.662;23.352;2024-03-07T09:45:53;5.57;;;3.45;;
41077;SDS011;26823;42.662;23.352;2024-03-07T09:48:20;5.45;;;3.85;;
41077;SDS011;26823;42.662;23.352;2024-03-07T09:50:50;4.45;;;3.47;;
41077;SDS011;26823;42.662;23.352;2024-03-07T09:53:17;4.00;;;3.33;;
41077;SDS011;26823;42.662;23.352;2024-03-07T09:55:45;5.57;;;3.65;;
41077;SDS011;26823;42.662;23.352;2024-03-07T09:58:10;5.40;;;3.72;;
41077;SDS011;26823;42.662;23.352;2024-03-07T10:00:38;4.15;;;3.55;;
41077;SDS011;26823;42.662;23.352;2024-03-07T10:03:06;3.72;;;3.42;;
41077;SDS011;26823;42.662;23.352;2024-03-07T10:05:33;3.78;;;3.38;;
41077;SDS011;26823;42.662;23.352;2024-03-07T10:08:00;3.45;;;3.05;;
41077;SDS011;26823;42.662;23.352;2024-03-07T10:10:25;4.10;;;3.70;;
41077;SDS011;26823;42.662;23.352;2024-03-07T10:12:51;5.60;;;3.38;;
41077;SDS011;26823;42.662;23.352;2024-03-07T10:15:18;4.43;;;3.67;;
41077;SDS011;26823;42.662;23.352;2024-03-07T10:17:44;5.18;;;3.65;;
41077;SDS011;26823;42.662;23.352;2024-03-07T10:20:12;6.57;;;3.80;;
41077;SDS011;26823;42.662;23.352;2024-03-07T10:22:39;7.82;;;4.00;;
41077;SDS011;26823;42.662;23.352;2024-03-07T10:25:06;7.53;;;4.20;;
41077;SDS011;26823;42.662;23.352;2024-03-07T10:27:35;7.97;;;4.28;;
41077;SDS011;26823;42.662;23.352;2024-03-07T10:30:01;5.63;;;4.15;;
41077;SDS011;26823;42.662;23.352;2024-03-07T10:32:27;7.13;;;4.90;;
41077;SDS011;26823;42.662;23.352;2024-03-07T10:34:53;6.57;;;5.03;;
41077;SDS011;26823;42.662;23.352;2024-03-07T10:37:19;9.63;;;5.75;;
41077;SDS011;26823;42.662;23.352;2024-03-07T10:39:50;9.07;;;5.88;;
41077;SDS011;26823;42.662;23.352;2024-03-07T10:42:17;6.47;;;4.93;;
41077;SDS011;26823;42.662;23.352;2024-03-07T10:44:45;9.02;;;3.83;;
41077;SDS011;26823;42.662;23.352;2024-03-07T10:47:23;4.78;;;4.28;;
41077;SDS011;26823;42.662;23.352;2024-03-07T10:52:41;23.48;;;4.72;;
41077;SDS011;26823;42.662;23.352;2024-03-07T10:55:23;8.02;;;5.38;;
41077;SDS011;26823;42.662;23.352;2024-03-07T10:57:56;6.28;;;4.10;;
41077;SDS011;26823;42.662;23.352;2024-03-07T11:00:32;7.70;;;3.35;;
41077;SDS011;26823;42.662;23.352;2024-03-07T11:03:01;7.05;;;3.58;;
41077;SDS011;26823;42.662;23.352;2024-03-07T11:05:32;3.47;;;3.15;;
41077;SDS011;26823;42.662;23.352;2024-03-07T11:07:59;3.72;;;3.00;;
41077;SDS011;26823;42.662;23.352;2024-03-07T11:10:32;4.93;;;3.45;;
41077;SDS011;26823;42.662;23.352;2024-03-07T11:13:00;11.75;;;4.25;;
41077;SDS011;26823;42.662;23.352;2024-03-07T11:15:26;4.07;;;3.42;;
41077;SDS011;26823;42.662;23.352;2024-03-07T11:17:53;5.55;;;3.63;;
41077;SDS011;26823;42.662;23.352;2024-03-07T11:20:23;3.20;;;2.85;;
41077;SDS011;26823;42.662;23.352;2024-03-07T11:22:52;5.40;;;3.45;;
41077;SDS011;26823;42.662;23.352;2024-03-07T11:25:21;5.82;;;3.75;;
41077;SDS011;26823;42.662;23.352;2024-03-07T11:27:51;5.70;;;3.50;;
41077;SDS011;26823;42.662;23.352;2024-03-07T11:30:20;6.22;;;4.55;;
41077;SDS011;26823;42.662;23.352;2024-03-07T11:32:47;5.13;;;3.72;;
41077;SDS011;26823;42.662;23.352;2024-03-07T11:35:19;4.88;;;3.67;;
41077;SDS011;26823;42.662;23.352;2024-03-07T11:37:57;7.68;;;4.00;;
41077;SDS011;26823;42.662;23.352;2024-03-07T11:42:50;7.40;;;4.43;;
41077;SDS011;26823;42.662;23.352;2024-03-07T11:45:17;8.75;;;4.05;;
41077;SDS011;26823;42.662;23.352;2024-03-07T11:47:52;5.35;;;4.35;;
41077;SDS011;26823;42.662;23.352;2024-03-07T11:50:37;5.53;;;4.07;;
41077;SDS011;26823;42.662;23.352;2024-03-07T11:53:05;4.95;;;4.45;;
41077;SDS011;26823;42.662;23.352;2024-03-07T11:55:32;8.00;;;4.35;;
41077;SDS011;26823;42.662;23.352;2024-03-07T11:58:18;8.40;;;5.03;;
41077;SDS011;26823;42.662;23.352;2024-03-07T12:00:47;6.28;;;4.68;;
41077;SDS011;26823;42.662;23.352;2024-03-07T12:03:14;6.07;;;4.30;;
41077;SDS011;26823;42.662;23.352;2024-03-07T12:05:46;7.88;;;4.50;;
41077;SDS011;26823;42.662;23.352;2024-03-07T12:08:12;7.03;;;4.57;;
41077;SDS011;26823;42.662;23.352;2024-03-07T12:10:39;6.78;;;4.32;;
41077;SDS011;26823;42.662;23.352;2024-03-07T12:13:09;7.18;;;4.25;;
41077;SDS011;26823;42.662;23.352;2024-03-07T12:15:36;5.88;;;3.88;;
41077;SDS011;26823;42.662;23.352;2024-03-07T12:18:03;6.75;;;4.35;;
41077;SDS011;26823;42.662;23.352;2024-03-07T12:20:33;6.07;;;4.40;;
41077;SDS011;26823;42.662;23.352;2024-03-07T12:23:00;6.53;;;4.35;;
41077;SDS011;26823;42.662;23.352;2024-03-07T12:25:30;10.65;;;4.68;;
41077;SDS011;26823;42.662;23.352;2024-03-07T12:28:12;7.07;;;4.45;;
41077;SDS011;26823;42.662;23.352;2024-03-07T12:30:54;8.07;;;4.20;;
41077;SDS011;26823;42.662;23.352;2024-03-07T12:33:21;4.07;;;3.35;;
41077;SDS011;26823;42.662;23.352;2024-03-07T12:35:50;4.25;;;3.13;;
41077;SDS011;26823;42.662;23.352;2024-03-07T12:38:18;5.25;;;3.75;;
41077;SDS011;26823;42.662;23.352;2024-03-07T12:40:45;7.72;;;4.32;;
41077;SDS011;26823;42.662;23.352;2024-03-07T12:43:13;7.40;;;4.88;;
41077;SDS011;26823;42.662;23.352;2024-03-07T12:45:49;6.97;;;5.30;;
41077;SDS011;26823;42.662;23.352;2024-03-07T12:48:15;8.43;;;5.50;;
41077;SDS011;26823;42.662;23.352;2024-03-07T12:50:41;9.18;;;5.65;;
41077;SDS011;26823;42.662;23.352;2024-03-07T12:53:10;8.30;;;6.13;;
41077;SDS011;26823;42.662;23.352;2024-03-07T12:55:40;8.20;;;6.20;;
41077;SDS011;26823;42.662;23.352;2024-03-07T12:58:09;8.75;;;6.30;;
41077;SDS011;26823;42.662;23.352;2024-03-07T13:00:53;6.80;;;5.95;;
41077;SDS011;26823;42.662;23.352;2024-03-07T13:03:20;9.20;;;6.70;;
41077;SDS011;26823;42.662;23.352;2024-03-07T13:05:46;9.18;;;6.88;;
41077;SDS011;26823;42.662;23.352;2024-03-07T13:08:12;9.27;;;7.00;;
41077;SDS011;26823;42.662;23.352;2024-03-07T13:10:44;13.00;;;6.35;;
41077;SDS011;26823;42.662;23.352;2024-03-07T13:13:10;12.98;;;6.78;;
41077;SDS011;26823;42.662;23.352;2024-03-07T13:15:36;8.05;;;6.53;;
41077;SDS011;26823;42.662;23.352;2024-03-07T13:18:03;7.38;;;6.22;;
41077;SDS011;26823;42.662;23.352;2024-03-07T13:20:30;11.27;;;6.65;;
41077;SDS011;26823;42.662;23.352;2024-03-07T13:22:56;7.57;;;5.50;;
41077;SDS011;26823;42.662;23.352;2024-03-07T13:25:23;8.35;;;5.88;;
41077;SDS011;26823;42.662;23.352;2024-03-07T13:28:00;8.88;;;6.28;;
41077;SDS011;26823;42.662;23.352;2024-03-07T13:30:38;6.63;;;5.88;;
41077;SDS011;26823;42.662;23.352;2024-03-07T13:33:05;10.45;;;5.78;;
41077;SDS011;26823;42.662;23.352;2024-03-07T13:35:31;7.93;;;5.57;;
41077;SDS011;26823;42.662;23.352;2024-03-07T13:37:56;6.68;;;5.32;;
41077;SDS011;26823;42.662;23.352;2024-03-07T13:40:23;6.32;;;4.78;;
41077;SDS011;26823;42.662;23.352;2024-03-07T13:42:50;6.30;;;5.22;;
41077;SDS011;26823;42.662;23.352;2024-03-07T13:45:24;10.07;;;6.57;;
41077;SDS011;26823;42.662;23.352;2024-03-07T13:47:52;7.00;;;5.22;;
41077;SDS011;26823;42.662;23.352;2024-03-07T13:50:19;5.20;;;4.65;;
41077;SDS011;26823;42.662;23.352;2024-03-07T13:52:52;6.15;;;4.90;;
41077;SDS011;26823;42.662;23.352;2024-03-07T13:55:33;7.15;;;5.13;;
41077;SDS011;26823;42.662;23.352;2024-03-07T14:07:37;6.45;;;4.78;;
41077;SDS011;26823;42.662;23.352;2024-03-07T14:24:53;8.85;;;5.57;;
41077;SDS011;26823;42.662;23.352;2024-03-07T14:27:42;8.13;;;5.18;;
41077;SDS011;26823;42.662;23.352;2024-03-07T14:30:37;7.60;;;5.65;;
41077;SDS011;26823;42.662;23.352;2024-03-07T14:33:08;10.00;;;5.63;;
41077;SDS011;26823;42.662;23.352;2024-03-07T14:40:49;7.75;;;5.82;;
41077;SDS011;26823;42.662;23.352;2024-03-07T14:43:16;12.75;;;6.85;;
41077;SDS011;26823;42.662;23.352;2024-03-07T14:45:44;12.70;;;7.22;;
41077;SDS011;26823;42.662;23.352;2024-03-07T14:48:11;12.80;;;6.70;;
41077;SDS011;26823;42.662;23.352;2024-03-07T14:50:40;12.57;;;8.23;;
41077;SDS011;26823;42.662;23.352;2024-03-07T14:53:07;14.57;;;7.63;;
41077;SDS011;26823;42.662;23.352;2024-03-07T14:55:33;8.68;;;7.30;;
41077;SDS011;26823;42.662;23.352;2024-03-07T14:58:01;12.27;;;8.23;;
41077;SDS011;26823;42.662;23.352;2024-03-07T15:00:27;10.80;;;7.40;;
41077;SDS011;26823;42.662;23.352;2024-03-07T15:02:54;11.10;;;7.35;;
41077;SDS011;26823;42.662;23.352;2024-03-07T15:05:24;12.23;;;8.23;;